Wilpen, Pennsylvania
Current Conditions -  °F | °C
As of 10:45 AM on Sunday 23 Nov 2014 (Local Time) from KLBE Reporting Station
Broken Clouds Broken Clouds  
Wind Chill: 59°   Ceiling: 15000
Heat Index: 59°   Visibility: 10mi
Dew Point: 41°   Wind: 8mph
Humidity: 51%   Direction: 190°S
Pressure: 30.09"   Gusts: NA
Location:  40.2437°N, 79.2397°W
Report Text: KLBE 231545Z 19007KT 10SM BKN150 15/05 A3009
Loading
Personal Weather Stations






























Interactive Weather Map New forecast layout! Learn more

10-Day Weather Forecast

Advertisements
Track Severe Weather on mobile